Clayton Center, Iowa
Current Conditions -  °F | °C
As of 8:55 PM on Saturday 25 Oct 2014 (Local Time) from KPDC Reporting Station
Clear Clear  
Wind Chill: 45°   Ceiling: Unl
Heat Index: 47°   Visibility: 10mi
Dew Point: 32°   Wind: 6mph
Humidity: 55%   Direction: 260°W
Pressure: 30.02"   Gusts: NA
Location:  42.8388°N, 91.4421°W
Report Text: KPDC 260155Z AUTO 26005KT 10SM CLR 09/00 A3002 RMK AO2 T00861001
Loading
Personal Weather Stations






























Interactive Weather Map
Tropical Storm Tracking
New forecast layout! Learn more

10-Day Weather Forecast

Advertisements
Track Severe Weather on mobile